createdAt,value
2023-01-28T00:01:50.533Z,3.60
2023-01-28T00:04:21.032Z,4.17
2023-01-28T00:06:51.567Z,3.60
2023-01-28T00:09:22.302Z,3.50
2023-01-28T00:11:53.792Z,4.10
2023-01-28T00:14:24.189Z,4.03
2023-01-28T00:16:54.802Z,4.28
2023-01-28T00:19:25.300Z,4.07
2023-01-28T00:21:57.328Z,3.97
2023-01-28T00:24:28.322Z,3.83
2023-01-28T00:26:58.854Z,3.77
2023-01-28T00:29:29.313Z,3.83
2023-01-28T00:32:00.830Z,3.57
2023-01-28T00:34:31.287Z,4.10
2023-01-28T00:37:03.545Z,3.40
2023-01-28T00:39:34.041Z,3.60
2023-01-28T00:42:05.751Z,3.63
2023-01-28T00:44:36.535Z,4.10
2023-01-28T00:47:07.085Z,4.30
2023-01-28T00:49:37.444Z,3.90
2023-01-28T00:52:07.952Z,3.47
2023-01-28T00:54:38.543Z,3.80
2023-01-28T00:57:09.050Z,3.50
2023-01-28T00:59:39.564Z,4.00
2023-01-28T01:02:12.981Z,4.27
2023-01-28T01:04:45.292Z,3.73
2023-01-28T01:07:15.719Z,3.80
2023-01-28T01:09:47.412Z,3.90
2023-01-28T01:12:18.267Z,3.77
2023-01-28T01:14:49.039Z,4.30
2023-01-28T01:17:20.407Z,3.90
2023-01-28T01:19:50.927Z,3.87
2023-01-28T01:22:21.450Z,4.13
2023-01-28T01:24:52.207Z,4.43
2023-01-28T01:27:24.633Z,4.70
2023-01-28T01:29:56.774Z,3.77
2023-01-28T01:32:32.325Z,3.50
2023-01-28T01:35:05.592Z,3.80
2023-01-28T01:37:37.367Z,4.07
2023-01-28T01:40:09.309Z,3.90
2023-01-28T01:42:39.863Z,3.90
2023-01-28T01:45:14.566Z,3.80
2023-01-28T01:48:00.590Z,3.57
2023-01-28T01:50:34.086Z,3.40
2023-01-28T01:53:16.747Z,3.90
2023-01-28T01:55:52.745Z,3.97
2023-01-28T01:58:26.453Z,4.07
2023-01-28T02:00:57.261Z,3.80
2023-01-28T02:03:33.478Z,3.80
2023-01-28T02:06:04.732Z,3.40
2023-01-28T02:08:35.759Z,3.98
2023-01-28T02:11:09.093Z,2.93
2023-01-28T02:13:45.680Z,3.40
2023-01-28T02:16:16.815Z,3.37
2023-01-28T02:18:47.430Z,3.43
2023-01-28T02:21:26.560Z,3.30
2023-01-28T02:24:03.000Z,3.30
2023-01-28T02:27:01.027Z,3.60
2023-01-28T02:29:34.712Z,3.30
2023-01-28T02:32:08.270Z,3.63
2023-01-28T02:35:02.880Z,3.53
2023-01-28T02:37:57.621Z,3.80
2023-01-28T02:40:30.858Z,3.30
2023-01-28T02:43:01.395Z,3.10
2023-01-28T02:45:54.233Z,3.20
2023-01-28T02:48:25.210Z,3.47
2023-01-28T02:51:10.859Z,3.30
2023-01-28T02:53:50.274Z,3.30
2023-01-28T02:56:28.124Z,3.83
2023-01-28T02:59:28.367Z,3.60
2023-01-28T03:02:18.507Z,3.40
2023-01-28T03:04:55.951Z,3.20
2023-01-28T03:07:29.738Z,3.23
2023-01-28T03:10:04.421Z,5.23
2023-01-28T03:12:56.239Z,3.10
2023-01-28T03:16:05.586Z,3.53
2023-01-28T03:19:06.442Z,3.50
2023-01-28T03:21:57.773Z,2.97
2023-01-28T03:24:49.011Z,3.40
2023-01-28T03:28:01.623Z,3.20
2023-01-28T03:30:52.678Z,3.40
2023-01-28T03:33:43.071Z,3.17
2023-01-28T03:36:31.605Z,2.60
2023-01-28T03:39:02.807Z,3.27
2023-01-28T03:41:33.232Z,2.80
2023-01-28T03:44:22.762Z,2.80
2023-01-28T03:46:54.989Z,3.63
2023-01-28T03:49:27.438Z,2.60
2023-01-28T03:51:58.026Z,2.90
2023-01-28T03:54:30.236Z,2.80
2023-01-28T03:57:02.476Z,2.67
2023-01-28T03:59:34.266Z,3.37
2023-01-28T04:02:06.344Z,2.90
2023-01-28T04:04:36.885Z,2.60
2023-01-28T04:07:11.388Z,2.60
2023-01-28T04:09:41.844Z,2.50
2023-01-28T04:12:12.889Z,2.97
2023-01-28T04:14:44.277Z,2.60
2023-01-28T04:17:15.034Z,2.57
2023-01-28T04:19:45.459Z,2.60
2023-01-28T04:22:17.777Z,2.80
2023-01-28T04:24:48.376Z,2.73
2023-01-28T04:27:18.763Z,2.90
2023-01-28T04:29:50.316Z,2.80
2023-01-28T04:32:21.929Z,2.63
2023-01-28T04:34:52.451Z,2.70
2023-01-28T04:37:22.924Z,2.87
2023-01-28T04:39:53.406Z,2.70
2023-01-28T04:42:23.975Z,2.50
2023-01-28T04:44:55.051Z,2.80
2023-01-28T04:47:25.708Z,3.07
2023-01-28T04:49:56.135Z,2.77
2023-01-28T04:52:26.743Z,3.20
2023-01-28T04:54:57.139Z,2.60
2023-01-28T04:57:27.574Z,3.10
2023-01-28T04:59:59.619Z,2.83
2023-01-28T05:02:30.210Z,3.10
2023-01-28T05:05:01.631Z,2.70
2023-01-28T05:07:32.239Z,2.67
2023-01-28T05:10:02.717Z,2.90
2023-01-28T05:12:34.195Z,2.73
2023-01-28T05:15:05.018Z,2.80
2023-01-28T05:17:35.902Z,2.60
2023-01-28T05:20:07.422Z,2.73
2023-01-28T05:22:37.938Z,2.60
2023-01-28T05:25:09.463Z,3.30
2023-01-28T05:27:39.961Z,2.87
2023-01-28T05:30:12.731Z,2.90
2023-01-28T05:32:43.483Z,3.00
2023-01-28T05:35:14.303Z,3.60
2023-01-28T05:37:45.012Z,3.93
2023-01-28T05:40:16.043Z,4.30
2023-01-28T05:42:47.169Z,5.10
2023-01-28T05:45:17.710Z,4.10
2023-01-28T05:47:48.384Z,5.00
2023-01-28T05:50:19.023Z,6.07
2023-01-28T05:52:49.605Z,5.03
2023-01-28T05:55:20.916Z,5.60
2023-01-28T05:57:51.893Z,5.53
2023-01-28T06:00:22.688Z,5.57
2023-01-28T06:02:53.502Z,5.60
2023-01-28T06:05:24.306Z,7.10
2023-01-28T06:07:55.783Z,6.37
2023-01-28T06:10:26.893Z,6.40
2023-01-28T06:12:57.539Z,6.57
2023-01-28T06:15:28.165Z,6.93
2023-01-28T06:17:59.427Z,7.13
2023-01-28T06:20:29.886Z,6.10
2023-01-28T06:23:00.535Z,5.70
2023-01-28T06:25:31.451Z,6.60
2023-01-28T06:28:01.886Z,5.80
2023-01-28T06:30:32.558Z,5.60
2023-01-28T06:33:03.338Z,4.30
2023-01-28T06:35:36.338Z,3.93
2023-01-28T06:38:05.882Z,3.67
2023-01-28T06:40:36.838Z,3.27
2023-01-28T06:43:07.825Z,3.50
2023-01-28T06:45:38.366Z,3.67
2023-01-28T06:48:09.007Z,3.70
2023-01-28T06:50:39.580Z,3.30
2023-01-28T06:53:13.328Z,3.53
2023-01-28T06:55:44.074Z,4.03
2023-01-28T06:58:15.070Z,3.57
2023-01-28T07:00:45.937Z,3.07
2023-01-28T07:03:16.686Z,3.50
2023-01-28T07:05:47.348Z,2.90
2023-01-28T07:08:17.944Z,3.20
2023-01-28T07:10:49.348Z,3.97
2023-01-28T07:13:19.763Z,3.40
2023-01-28T07:15:50.649Z,4.30
2023-01-28T07:18:21.438Z,2.90
2023-01-28T07:20:51.860Z,3.00
2023-01-28T07:23:22.293Z,2.53
2023-01-28T07:25:52.852Z,2.10
2023-01-28T07:28:23.257Z,2.37
2023-01-28T07:30:54.118Z,3.67
2023-01-28T07:33:24.833Z,4.13
2023-01-28T07:35:55.375Z,4.20
2023-01-28T07:38:28.246Z,5.10
2023-01-28T07:40:58.835Z,3.90
2023-01-28T07:43:29.487Z,3.20
2023-01-28T07:46:04.427Z,4.67
2023-01-28T07:48:36.029Z,4.20
2023-01-28T07:51:07.003Z,4.07
2023-01-28T07:53:39.152Z,2.80
2023-01-28T07:56:11.917Z,2.50
2023-01-28T07:58:42.455Z,2.77
2023-01-28T08:01:14.218Z,3.27
2023-01-28T08:03:44.874Z,2.90
2023-01-28T08:06:19.125Z,3.10
2023-01-28T08:08:49.899Z,2.67
2023-01-28T08:11:21.207Z,2.50
2023-01-28T08:13:54.486Z,2.03
2023-01-28T08:16:24.905Z,2.20
2023-01-28T08:18:55.551Z,2.07
2023-01-28T08:21:26.117Z,2.60
2023-01-28T08:23:57.062Z,2.37
2023-01-28T08:26:27.693Z,2.30
2023-01-28T08:29:03.055Z,2.23
2023-01-28T08:31:33.774Z,2.30
2023-01-28T08:34:04.361Z,2.70
2023-01-28T08:36:34.872Z,1.67
2023-01-28T08:39:07.032Z,1.82
2023-01-28T08:41:38.984Z,3.30
2023-01-28T08:44:09.665Z,2.57
2023-01-28T08:46:40.145Z,2.60
2023-01-28T08:49:10.929Z,3.20
2023-01-28T08:51:41.710Z,2.42
2023-01-28T08:54:12.328Z,2.00
2023-01-28T08:56:44.968Z,2.60
2023-01-28T08:59:16.291Z,2.10
2023-01-28T09:01:49.630Z,2.53
2023-01-28T09:04:20.162Z,2.13
2023-01-28T09:06:50.623Z,2.20
2023-01-28T09:09:22.719Z,2.70
2023-01-28T09:11:53.237Z,2.33
2023-01-28T09:14:23.794Z,1.90
2023-01-28T09:16:54.384Z,2.10
2023-01-28T09:19:24.955Z,2.80
2023-01-28T09:21:55.410Z,2.20
2023-01-28T09:24:27.409Z,2.10
2023-01-28T09:26:58.060Z,1.43
2023-01-28T09:29:28.483Z,2.60
2023-01-28T09:31:59.011Z,1.93
2023-01-28T09:34:29.715Z,1.80
2023-01-28T09:37:00.231Z,1.80
2023-01-28T09:39:31.606Z,1.72
2023-01-28T09:42:09.887Z,1.60
2023-01-28T09:45:04.305Z,1.75
2023-01-28T09:47:43.736Z,1.73
2023-01-28T09:50:20.856Z,1.60
2023-01-28T09:52:54.423Z,1.90
2023-01-28T09:55:36.951Z,2.00
2023-01-28T09:58:15.072Z,1.85
2023-01-28T10:00:59.150Z,1.67
2023-01-28T10:03:44.952Z,1.90
2023-01-28T10:06:36.888Z,1.10
2023-01-28T10:09:26.283Z,1.77
2023-01-28T10:12:18.318Z,1.50
2023-01-28T10:15:00.889Z,1.27
2023-01-28T10:17:34.603Z,1.10
2023-01-28T10:20:16.270Z,1.20
2023-01-28T10:22:56.862Z,1.70
2023-01-28T10:25:31.782Z,1.50
2023-01-28T10:28:03.462Z,1.30
2023-01-28T10:30:40.457Z,1.40
2023-01-28T10:33:35.264Z,1.70
2023-01-28T10:36:07.268Z,1.40
2023-01-28T10:38:39.531Z,1.80
2023-01-28T10:41:14.254Z,1.82
2023-01-28T10:43:48.318Z,1.80
2023-01-28T10:46:34.382Z,1.50
2023-01-28T10:49:29.493Z,1.90
2023-01-28T10:52:03.744Z,2.87
2023-01-28T10:54:36.339Z,2.17
2023-01-28T10:57:13.656Z,1.67
2023-01-28T10:59:44.493Z,1.50
2023-01-28T11:02:37.283Z,1.63
2023-01-28T11:05:22.634Z,1.40
2023-01-28T11:08:04.944Z,1.73
2023-01-28T11:10:40.066Z,1.85
2023-01-28T11:13:23.530Z,4.73
2023-01-28T11:16:07.698Z,4.60
2023-01-28T11:18:52.424Z,2.00
2023-01-28T11:21:31.363Z,2.00
2023-01-28T11:24:07.487Z,1.80
2023-01-28T11:26:43.131Z,1.93
2023-01-28T11:29:26.052Z,1.43
2023-01-28T11:31:57.342Z,1.70
2023-01-28T11:34:30.540Z,1.60
2023-01-28T11:37:10.317Z,2.43
2023-01-28T11:39:40.935Z,2.40
2023-01-28T11:42:16.062Z,1.80
2023-01-28T11:44:48.414Z,1.60
2023-01-28T11:47:32.876Z,1.80
2023-01-28T11:50:19.134Z,1.50
2023-01-28T11:53:06.791Z,1.50
2023-01-28T11:55:59.340Z,1.80
2023-01-28T11:59:00.373Z,1.97
2023-01-28T12:01:33.757Z,1.77
2023-01-28T12:04:14.189Z,2.50
2023-01-28T12:07:00.629Z,2.37
2023-01-28T12:09:35.732Z,2.00
2023-01-28T12:12:44.604Z,2.30
2023-01-28T12:15:36.245Z,2.10
2023-01-28T12:18:26.444Z,2.47
2023-01-28T12:21:11.480Z,2.45
2023-01-28T12:23:56.649Z,2.00
2023-01-28T12:26:41.107Z,2.83
2023-01-28T12:29:31.853Z,2.30
2023-01-28T12:32:24.341Z,2.17
2023-01-28T12:35:31.550Z,1.90
2023-01-28T12:38:29.788Z,2.30
2023-01-28T12:41:18.531Z,2.00
2023-01-28T12:44:08.302Z,1.97
2023-01-28T12:46:47.126Z,1.80
2023-01-28T12:49:29.388Z,2.13
2023-01-28T12:52:06.175Z,1.83
2023-01-28T12:54:51.903Z,1.50
2023-01-28T12:57:32.166Z,2.00
2023-01-28T13:00:27.386Z,1.87
2023-01-28T13:03:22.572Z,1.70
2023-01-28T13:05:56.365Z,2.33
2023-01-28T13:08:29.093Z,1.80
2023-01-28T13:11:01.924Z,2.10
2023-01-28T13:13:42.376Z,1.77
2023-01-28T13:16:14.131Z,2.20
2023-01-28T13:18:49.253Z,1.60
2023-01-28T13:21:30.549Z,1.63
2023-01-28T13:24:06.892Z,1.60
2023-01-28T13:26:49.544Z,1.70
2023-01-28T13:29:23.111Z,1.30
2023-01-28T13:31:56.501Z,1.60
2023-01-28T13:34:36.431Z,1.80
2023-01-28T13:37:40.713Z,1.90
2023-01-28T13:40:17.235Z,2.17
2023-01-28T13:42:51.853Z,3.83
2023-01-28T13:45:24.791Z,2.70
2023-01-28T13:48:21.154Z,1.70
2023-01-28T13:50:55.193Z,1.60
2023-01-28T13:53:31.245Z,1.40
2023-01-28T13:56:04.614Z,1.90
2023-01-28T13:59:05.420Z,1.70
2023-01-28T14:01:43.407Z,1.40
2023-01-28T14:04:36.111Z,1.60
2023-01-28T14:07:12.562Z,1.27
2023-01-28T14:10:06.045Z,1.50
2023-01-28T14:13:08.207Z,1.40
2023-01-28T14:16:03.087Z,1.37
2023-01-28T14:18:39.323Z,1.80
2023-01-28T14:21:16.135Z,1.40
2023-01-28T14:23:49.714Z,1.40
2023-01-28T14:26:33.133Z,1.50
2023-01-28T14:29:28.026Z,1.20
2023-01-28T14:31:58.546Z,1.40
2023-01-28T14:34:37.408Z,1.70
2023-01-28T14:37:11.064Z,1.60
2023-01-28T14:39:47.820Z,1.70
2023-01-28T14:42:22.335Z,1.53
2023-01-28T14:45:20.236Z,1.70
2023-01-28T14:48:02.864Z,1.47
2023-01-28T14:51:00.695Z,1.13
2023-01-28T14:53:53.945Z,1.47
2023-01-28T14:56:35.476Z,1.83
2023-01-28T14:59:22.826Z,2.20
2023-01-28T15:01:59.446Z,1.83
2023-01-28T15:04:34.384Z,2.10
2023-01-28T15:07:20.403Z,2.63
2023-01-28T15:10:18.299Z,1.80
2023-01-28T15:13:00.645Z,2.53
2023-01-28T15:15:37.839Z,2.07
2023-01-28T15:18:19.025Z,2.20
2023-01-28T15:20:52.163Z,1.70
2023-01-28T15:23:25.811Z,1.90
2023-01-28T15:25:57.250Z,1.70
2023-01-28T15:28:33.328Z,1.70
2023-01-28T15:31:06.463Z,1.70
2023-01-28T15:33:36.759Z,1.90
2023-01-28T15:36:07.825Z,1.77
2023-01-28T15:38:40.311Z,1.70
2023-01-28T15:41:12.985Z,1.50
2023-01-28T15:43:47.883Z,1.80
2023-01-28T15:46:19.335Z,1.53
2023-01-28T15:48:56.037Z,2.20
2023-01-28T15:51:28.898Z,2.13
2023-01-28T15:54:07.918Z,2.00
2023-01-28T15:56:38.956Z,2.40
2023-01-28T15:59:19.380Z,1.93
2023-01-28T16:01:50.527Z,2.30
2023-01-28T16:04:27.540Z,2.30
2023-01-28T16:07:02.159Z,3.30
2023-01-28T16:09:34.176Z,2.80
2023-01-28T16:12:07.577Z,2.23
2023-01-28T16:14:53.770Z,2.90
2023-01-28T16:17:27.455Z,2.20
2023-01-28T16:20:01.093Z,2.27
2023-01-28T16:22:34.966Z,2.30
2023-01-28T16:25:24.653Z,2.70
2023-01-28T16:27:55.730Z,2.40
2023-01-28T16:30:28.137Z,2.50
2023-01-28T16:32:58.595Z,2.23
2023-01-28T16:35:47.356Z,2.37
2023-01-28T16:38:03.123Z,3.20
2023-01-28T16:40:35.260Z,2.80
2023-01-28T16:43:13.088Z,2.73
2023-01-28T16:45:44.555Z,2.20
2023-01-28T16:48:15.635Z,2.40
2023-01-28T16:50:47.095Z,2.60
2023-01-28T16:53:28.659Z,2.43
2023-01-28T16:56:00.461Z,2.10
2023-01-28T16:58:32.047Z,2.50
2023-01-28T17:01:02.607Z,2.27
2023-01-28T17:03:34.555Z,2.53
2023-01-28T17:06:05.568Z,2.43
2023-01-28T17:08:38.070Z,2.07
2023-01-28T17:11:08.459Z,2.10
2023-01-28T17:13:40.299Z,2.70
2023-01-28T17:16:12.553Z,2.60
2023-01-28T17:18:43.029Z,2.40
2023-01-28T17:21:13.579Z,2.60
2023-01-28T17:23:45.757Z,2.40
2023-01-28T17:26:17.142Z,2.80
2023-01-28T17:28:53.364Z,2.77
2023-01-28T17:31:27.465Z,2.43
2023-01-28T17:34:00.087Z,2.37
2023-01-28T17:36:32.593Z,2.67
2023-01-28T17:39:04.843Z,2.80
2023-01-28T17:41:35.859Z,2.93
2023-01-28T17:44:06.564Z,2.50
2023-01-28T17:46:39.483Z,3.20
2023-01-28T17:49:10.042Z,3.10
2023-01-28T17:51:40.821Z,2.93
2023-01-28T17:54:14.094Z,3.00
2023-01-28T17:56:46.770Z,2.93
2023-01-28T17:59:18.363Z,3.30
2023-01-28T18:01:50.102Z,3.30
2023-01-28T18:04:20.777Z,3.40
2023-01-28T18:06:53.784Z,3.53
2023-01-28T18:09:26.347Z,3.40
2023-01-28T18:11:58.410Z,2.90
2023-01-28T18:14:29.010Z,2.63
2023-01-28T18:17:00.953Z,2.90
2023-01-28T18:19:32.412Z,2.93
2023-01-28T18:22:03.031Z,2.60
2023-01-28T18:24:34.838Z,3.00
2023-01-28T18:27:08.142Z,3.00
2023-01-28T18:29:38.675Z,3.73
2023-01-28T18:32:12.193Z,3.13
2023-01-28T18:34:42.797Z,3.70
2023-01-28T18:37:13.230Z,3.80
2023-01-28T18:39:44.665Z,3.60
2023-01-28T18:42:16.545Z,3.47
2023-01-28T18:44:49.087Z,4.30
2023-01-28T18:47:19.427Z,3.00
2023-01-28T18:49:50.580Z,3.47
2023-01-28T18:52:21.700Z,3.27
2023-01-28T18:54:54.385Z,3.23
2023-01-28T18:57:24.914Z,3.60
2023-01-28T18:59:55.376Z,3.93
2023-01-28T19:02:26.273Z,3.53
2023-01-28T19:04:57.486Z,3.53
2023-01-28T19:07:28.287Z,3.80
2023-01-28T19:09:59.906Z,3.30
2023-01-28T19:12:31.103Z,3.67
2023-01-28T19:15:03.927Z,2.70
2023-01-28T19:17:35.850Z,3.00
2023-01-28T19:20:08.752Z,3.27
2023-01-28T19:22:42.217Z,3.13
2023-01-28T19:25:13.728Z,3.63
2023-01-28T19:27:48.000Z,3.50
2023-01-28T19:30:19.927Z,3.13
2023-01-28T19:32:50.270Z,3.63
2023-01-28T19:35:21.526Z,3.37
2023-01-28T19:37:52.265Z,2.70
2023-01-28T19:40:23.947Z,3.37
2023-01-28T19:42:56.135Z,3.10
2023-01-28T19:45:28.679Z,3.77
2023-01-28T19:47:59.064Z,3.27
2023-01-28T19:50:31.119Z,2.77
2023-01-28T19:53:01.707Z,3.17
2023-01-28T19:55:34.378Z,2.70
2023-01-28T19:58:07.477Z,3.00
2023-01-28T20:00:39.964Z,3.60
2023-01-28T20:03:10.390Z,2.87
2023-01-28T20:05:40.947Z,2.83
2023-01-28T20:08:11.699Z,2.90
2023-01-28T20:10:43.058Z,3.03
2023-01-28T20:13:14.367Z,3.30
2023-01-28T20:15:44.991Z,3.20
2023-01-28T20:18:17.595Z,3.53
2023-01-28T20:20:53.297Z,3.57
2023-01-28T20:23:25.728Z,4.07
2023-01-28T20:26:04.457Z,3.70
2023-01-28T20:28:34.899Z,3.60
2023-01-28T20:31:08.335Z,3.97
2023-01-28T20:33:40.141Z,4.10
2023-01-28T20:36:13.760Z,5.00
2023-01-28T20:38:46.511Z,4.83
2023-01-28T20:41:20.826Z,5.63
2023-01-28T20:43:53.069Z,4.80
2023-01-28T20:46:28.351Z,4.20
2023-01-28T20:49:02.984Z,4.00
2023-01-28T20:51:35.883Z,4.70
2023-01-28T20:54:09.529Z,5.03
2023-01-28T20:56:38.840Z,5.03
2023-01-28T20:59:11.791Z,4.00
2023-01-28T21:01:42.808Z,4.10
2023-01-28T21:04:14.964Z,4.27
2023-01-28T21:06:45.996Z,4.30
2023-01-28T21:09:16.384Z,4.83
2023-01-28T21:11:46.815Z,3.97
2023-01-28T21:14:17.387Z,4.13
2023-01-28T21:16:49.550Z,4.33
2023-01-28T21:19:23.047Z,4.30
2023-01-28T21:21:55.984Z,4.27
2023-01-28T21:24:27.369Z,4.80
2023-01-28T21:26:57.892Z,4.40
2023-01-28T21:29:30.000Z,3.90
2023-01-28T21:32:00.493Z,4.27
2023-01-28T21:34:31.848Z,4.20
2023-01-28T21:37:02.337Z,5.13
2023-01-28T21:39:33.062Z,4.90
2023-01-28T21:42:03.934Z,5.63
2023-01-28T21:44:35.460Z,5.10
2023-01-28T21:47:06.843Z,5.27
2023-01-28T21:49:38.164Z,5.10
2023-01-28T21:52:09.238Z,4.27
2023-01-28T21:54:39.978Z,4.27
2023-01-28T21:57:12.515Z,4.53
2023-01-28T21:59:44.334Z,4.27
2023-01-28T22:02:16.306Z,4.03
2023-01-28T22:04:58.298Z,4.90
2023-01-28T22:07:30.637Z,4.50
2023-01-28T22:10:01.030Z,4.60
2023-01-28T22:12:31.856Z,4.60
2023-01-28T22:15:02.737Z,4.17
2023-01-28T22:17:34.466Z,4.90
2023-01-28T22:20:08.742Z,5.07
2023-01-28T22:22:39.429Z,4.77
2023-01-28T22:25:10.683Z,4.53
2023-01-28T22:27:41.412Z,5.20
2023-01-28T22:30:18.554Z,5.57
2023-01-28T22:32:50.549Z,5.10
2023-01-28T22:35:22.534Z,5.20
2023-01-28T22:37:53.522Z,5.20
2023-01-28T22:40:26.136Z,4.80
2023-01-28T22:42:56.651Z,5.27
2023-01-28T22:45:27.287Z,4.83
2023-01-28T22:47:59.449Z,5.17
2023-01-28T22:50:31.537Z,4.93
2023-01-28T22:53:05.734Z,6.37
2023-01-28T22:55:37.423Z,5.20
2023-01-28T22:58:09.394Z,5.00
2023-01-28T23:00:40.335Z,6.00
2023-01-28T23:03:11.346Z,5.60
2023-01-28T23:05:41.868Z,5.80
2023-01-28T23:08:12.609Z,6.13
2023-01-28T23:10:50.099Z,5.83
2023-01-28T23:13:24.955Z,5.63
2023-01-28T23:16:13.133Z,5.73
2023-01-28T23:19:04.336Z,5.93
2023-01-28T23:21:54.663Z,6.50
2023-01-28T23:24:26.077Z,7.40
2023-01-28T23:26:58.532Z,6.57
2023-01-28T23:29:32.094Z,6.83
2023-01-28T23:32:09.759Z,7.40
2023-01-28T23:34:44.435Z,6.90
2023-01-28T23:37:15.437Z,6.83
2023-01-28T23:39:46.047Z,6.60
2023-01-28T23:42:20.609Z,6.63
2023-01-28T23:44:51.206Z,7.00
2023-01-28T23:47:21.793Z,6.83
2023-01-28T23:49:53.758Z,7.70
2023-01-28T23:52:26.512Z,7.37
2023-01-28T23:54:57.473Z,7.03
2023-01-28T23:57:28.178Z,7.10
2023-01-28T23:59:58.637Z,7.93
